Riceville, Mississippi
Current Conditions -  °F | °C
As of 6:53 AM on Saturday 01 Nov 2014 (Local Time) from KGPT Reporting Station
Clear Clear  
Wind Chill: 34°   Ceiling: Unl
Heat Index: 41°   Visibility: 10mi
Dew Point: 24°   Wind: 13mph
Humidity: 51%   Direction: 350°N
Pressure: 30.28"   Gusts: NA
Location:  30.7239°N, 89.1669°W
Report Text: KGPT 011153Z 35011KT 10SM CLR 05/M04 A3028 RMK AO2 SLP254 T00501044 10122 20050 53024 $
Loading
Personal Weather Stations






























Interactive Weather Map
Tropical Storm Tracking
New forecast layout! Learn more

10-Day Weather Forecast

Advertisements
Track Severe Weather on mobile